sensor_id;sensor_type;location;lat;lon;timestamp;P1;durP1;ratioP1;P2;durP2;ratioP2
52396;SDS011;38322;53.108;6.308;2024-01-25T06:02:55;44.10;;;7.75;;
52396;SDS011;38322;53.108;6.308;2024-01-25T06:05:21;56.20;;;8.73;;
52396;SDS011;38322;53.108;6.308;2024-01-25T06:07:47;36.00;;;8.73;;
52396;SDS011;38322;53.108;6.308;2024-01-25T06:10:15;50.78;;;9.05;;
52396;SDS011;38322;53.108;6.308;2024-01-25T06:12:41;68.68;;;12.45;;
52396;SDS011;38322;53.108;6.308;2024-01-25T06:15:07;48.05;;;10.15;;
52396;SDS011;38322;53.108;6.308;2024-01-25T06:17:33;43.00;;;10.55;;
52396;SDS011;38322;53.108;6.308;2024-01-25T06:19:59;45.67;;;7.15;;
52396;SDS011;38322;53.108;6.308;2024-01-25T06:22:25;40.58;;;8.13;;
52396;SDS011;38322;53.108;6.308;2024-01-25T06:24:50;51.90;;;8.00;;
52396;SDS011;38322;53.108;6.308;2024-01-25T06:27:16;37.47;;;8.48;;
52396;SDS011;38322;53.108;6.308;2024-01-25T06:29:42;44.13;;;7.72;;
52396;SDS011;38322;53.108;6.308;2024-01-25T06:32:08;38.50;;;6.80;;
52396;SDS011;38322;53.108;6.308;2024-01-25T06:34:35;51.10;;;8.43;;
52396;SDS011;38322;53.108;6.308;2024-01-25T06:37:01;43.47;;;8.20;;
52396;SDS011;38322;53.108;6.308;2024-01-25T06:39:27;39.20;;;7.10;;
52396;SDS011;38322;53.108;6.308;2024-01-25T06:41:53;54.97;;;9.13;;
52396;SDS011;38322;53.108;6.308;2024-01-25T06:44:19;36.35;;;9.23;;
52396;SDS011;38322;53.108;6.308;2024-01-25T06:46:45;39.05;;;8.65;;
52396;SDS011;38322;53.108;6.308;2024-01-25T06:49:11;49.45;;;9.43;;
52396;SDS011;38322;53.108;6.308;2024-01-25T06:51:37;54.92;;;7.22;;
52396;SDS011;38322;53.108;6.308;2024-01-25T06:54:02;48.90;;;8.95;;
52396;SDS011;38322;53.108;6.308;2024-01-25T06:56:28;41.28;;;7.97;;
52396;SDS011;38322;53.108;6.308;2024-01-25T06:58:54;45.83;;;9.13;;
52396;SDS011;38322;53.108;6.308;2024-01-25T07:01:20;43.80;;;10.48;;
52396;SDS011;38322;53.108;6.308;2024-01-25T07:03:47;46.70;;;8.07;;
52396;SDS011;38322;53.108;6.308;2024-01-25T07:06:16;50.97;;;6.95;;
52396;SDS011;38322;53.108;6.308;2024-01-25T07:08:43;50.33;;;11.30;;
52396;SDS011;38322;53.108;6.308;2024-01-25T07:11:09;56.15;;;9.18;;
52396;SDS011;38322;53.108;6.308;2024-01-25T07:13:35;37.30;;;7.35;;
52396;SDS011;38322;53.108;6.308;2024-01-25T07:16:01;38.30;;;8.45;;
52396;SDS011;38322;53.108;6.308;2024-01-25T07:18:27;46.42;;;8.77;;
52396;SDS011;38322;53.108;6.308;2024-01-25T07:20:53;35.20;;;8.95;;
52396;SDS011;38322;53.108;6.308;2024-01-25T07:23:20;35.67;;;8.02;;
52396;SDS011;38322;53.108;6.308;2024-01-25T07:25:46;43.67;;;9.20;;
52396;SDS011;38322;53.108;6.308;2024-01-25T07:28:12;47.58;;;6.88;;
52396;SDS011;38322;53.108;6.308;2024-01-25T07:30:38;39.45;;;8.27;;
52396;SDS011;38322;53.108;6.308;2024-01-25T07:33:04;58.63;;;9.77;;
52396;SDS011;38322;53.108;6.308;2024-01-25T07:35:30;40.38;;;7.97;;
52396;SDS011;38322;53.108;6.308;2024-01-25T07:37:57;47.95;;;9.27;;
52396;SDS011;38322;53.108;6.308;2024-01-25T07:40:22;36.78;;;7.00;;
52396;SDS011;38322;53.108;6.308;2024-01-25T07:42:48;50.28;;;8.48;;
52396;SDS011;38322;53.108;6.308;2024-01-25T07:45:14;49.65;;;6.85;;
52396;SDS011;38322;53.108;6.308;2024-01-25T07:47:41;49.88;;;8.40;;
52396;SDS011;38322;53.108;6.308;2024-01-25T07:50:07;43.60;;;9.45;;
52396;SDS011;38322;53.108;6.308;2024-01-25T07:52:33;45.83;;;8.57;;
52396;SDS011;38322;53.108;6.308;2024-01-25T07:54:59;40.63;;;10.40;;
52396;SDS011;38322;53.108;6.308;2024-01-25T07:57:25;57.17;;;9.07;;
52396;SDS011;38322;53.108;6.308;2024-01-25T07:59:51;44.50;;;7.10;;
52396;SDS011;38322;53.108;6.308;2024-01-25T08:02:16;36.42;;;7.97;;
52396;SDS011;38322;53.108;6.308;2024-01-25T08:04:43;46.53;;;8.68;;
52396;SDS011;38322;53.108;6.308;2024-01-25T08:07:08;46.50;;;7.80;;
52396;SDS011;38322;53.108;6.308;2024-01-25T08:09:34;59.15;;;11.00;;
52396;SDS011;38322;53.108;6.308;2024-01-25T08:12:00;57.10;;;10.15;;
52396;SDS011;38322;53.108;6.308;2024-01-25T08:14:26;41.42;;;11.57;;
52396;SDS011;38322;53.108;6.308;2024-01-25T08:16:52;40.97;;;8.30;;
52396;SDS011;38322;53.108;6.308;2024-01-25T08:19:18;39.22;;;7.95;;
52396;SDS011;38322;53.108;6.308;2024-01-25T08:21:44;52.10;;;10.23;;
52396;SDS011;38322;53.108;6.308;2024-01-25T08:24:10;46.28;;;10.90;;
52396;SDS011;38322;53.108;6.308;2024-01-25T08:26:36;43.05;;;8.90;;
52396;SDS011;38322;53.108;6.308;2024-01-25T08:29:02;49.97;;;8.60;;
52396;SDS011;38322;53.108;6.308;2024-01-25T08:31:28;31.90;;;6.82;;
52396;SDS011;38322;53.108;6.308;2024-01-25T08:33:54;44.33;;;10.25;;
52396;SDS011;38322;53.108;6.308;2024-01-25T08:36:20;50.28;;;8.85;;
52396;SDS011;38322;53.108;6.308;2024-01-25T08:38:46;34.42;;;7.22;;
52396;SDS011;38322;53.108;6.308;2024-01-25T08:41:12;43.08;;;8.00;;
52396;SDS011;38322;53.108;6.308;2024-01-25T08:43:40;40.65;;;8.35;;
52396;SDS011;38322;53.108;6.308;2024-01-25T08:46:06;29.30;;;7.72;;
52396;SDS011;38322;53.108;6.308;2024-01-25T08:48:32;35.35;;;7.20;;
52396;SDS011;38322;53.108;6.308;2024-01-25T08:50:58;38.97;;;8.48;;
52396;SDS011;38322;53.108;6.308;2024-01-25T08:53:24;56.03;;;9.85;;
52396;SDS011;38322;53.108;6.308;2024-01-25T08:55:56;41.92;;;7.82;;
52396;SDS011;38322;53.108;6.308;2024-01-25T08:58:22;37.40;;;8.13;;
52396;SDS011;38322;53.108;6.308;2024-01-25T09:00:48;42.95;;;7.03;;
52396;SDS011;38322;53.108;6.308;2024-01-25T09:03:15;52.60;;;8.68;;
52396;SDS011;38322;53.108;6.308;2024-01-25T09:05:41;43.08;;;9.32;;
52396;SDS011;38322;53.108;6.308;2024-01-25T09:08:11;39.00;;;7.93;;
52396;SDS011;38322;53.108;6.308;2024-01-25T09:10:39;37.42;;;6.53;;
52396;SDS011;38322;53.108;6.308;2024-01-25T09:13:06;45.88;;;9.27;;
52396;SDS011;38322;53.108;6.308;2024-01-25T09:15:33;35.92;;;7.78;;
52396;SDS011;38322;53.108;6.308;2024-01-25T09:17:59;51.03;;;8.55;;
52396;SDS011;38322;53.108;6.308;2024-01-25T09:20:24;48.63;;;8.20;;
52396;SDS011;38322;53.108;6.308;2024-01-25T09:22:50;47.28;;;10.40;;
52396;SDS011;38322;53.108;6.308;2024-01-25T09:25:19;43.00;;;8.85;;
52396;SDS011;38322;53.108;6.308;2024-01-25T09:27:45;31.92;;;8.35;;
52396;SDS011;38322;53.108;6.308;2024-01-25T09:30:11;40.13;;;7.70;;
52396;SDS011;38322;53.108;6.308;2024-01-25T09:32:37;41.28;;;7.68;;
52396;SDS011;38322;53.108;6.308;2024-01-25T09:35:03;48.85;;;9.75;;
52396;SDS011;38322;53.108;6.308;2024-01-25T09:37:29;33.50;;;7.22;;
52396;SDS011;38322;53.108;6.308;2024-01-25T09:39:55;35.28;;;9.43;;
52396;SDS011;38322;53.108;6.308;2024-01-25T09:42:23;41.03;;;9.75;;
52396;SDS011;38322;53.108;6.308;2024-01-25T09:44:49;40.13;;;8.45;;
52396;SDS011;38322;53.108;6.308;2024-01-25T09:47:19;46.10;;;10.73;;
52396;SDS011;38322;53.108;6.308;2024-01-25T09:49:46;42.67;;;9.57;;
52396;SDS011;38322;53.108;6.308;2024-01-25T09:52:12;42.88;;;8.50;;
52396;SDS011;38322;53.108;6.308;2024-01-25T09:54:38;44.28;;;8.77;;
52396;SDS011;38322;53.108;6.308;2024-01-25T09:57:08;30.70;;;8.13;;
52396;SDS011;38322;53.108;6.308;2024-01-25T09:59:40;37.72;;;6.55;;
52396;SDS011;38322;53.108;6.308;2024-01-25T10:02:06;39.67;;;8.93;;
52396;SDS011;38322;53.108;6.308;2024-01-25T10:04:34;49.28;;;9.70;;
52396;SDS011;38322;53.108;6.308;2024-01-25T10:07:00;40.53;;;9.52;;
52396;SDS011;38322;53.108;6.308;2024-01-25T10:09:26;39.22;;;8.45;;
52396;SDS011;38322;53.108;6.308;2024-01-25T10:11:52;37.95;;;7.82;;
52396;SDS011;38322;53.108;6.308;2024-01-25T10:14:18;43.63;;;9.02;;
52396;SDS011;38322;53.108;6.308;2024-01-25T10:16:45;33.90;;;7.07;;
52396;SDS011;38322;53.108;6.308;2024-01-25T10:19:11;39.33;;;9.07;;
52396;SDS011;38322;53.108;6.308;2024-01-25T10:21:37;36.40;;;8.35;;
52396;SDS011;38322;53.108;6.308;2024-01-25T10:24:06;45.17;;;8.25;;
52396;SDS011;38322;53.108;6.308;2024-01-25T10:26:33;41.90;;;10.27;;
52396;SDS011;38322;53.108;6.308;2024-01-25T10:29:00;46.95;;;9.32;;
52396;SDS011;38322;53.108;6.308;2024-01-25T10:31:28;38.72;;;8.45;;
52396;SDS011;38322;53.108;6.308;2024-01-25T10:33:54;40.10;;;9.18;;
52396;SDS011;38322;53.108;6.308;2024-01-25T10:36:20;34.53;;;8.05;;
52396;SDS011;38322;53.108;6.308;2024-01-25T10:38:47;37.83;;;9.20;;
52396;SDS011;38322;53.108;6.308;2024-01-25T10:41:16;39.67;;;8.30;;
52396;SDS011;38322;53.108;6.308;2024-01-25T10:43:42;50.83;;;10.18;;
52396;SDS011;38322;53.108;6.308;2024-01-25T10:46:08;38.78;;;9.57;;
52396;SDS011;38322;53.108;6.308;2024-01-25T10:48:35;49.25;;;11.98;;
52396;SDS011;38322;53.108;6.308;2024-01-25T10:51:02;27.80;;;6.10;;
52396;SDS011;38322;53.108;6.308;2024-01-25T10:53:29;32.15;;;8.73;;
52396;SDS011;38322;53.108;6.308;2024-01-25T10:55:57;35.90;;;9.73;;
52396;SDS011;38322;53.108;6.308;2024-01-25T10:58:23;35.58;;;8.10;;
52396;SDS011;38322;53.108;6.308;2024-01-25T11:00:50;28.00;;;6.60;;
52396;SDS011;38322;53.108;6.308;2024-01-25T11:03:28;29.67;;;8.93;;
52396;SDS011;38322;53.108;6.308;2024-01-25T11:08:32;38.03;;;9.15;;
52396;SDS011;38322;53.108;6.308;2024-01-25T11:10:58;32.03;;;7.22;;
52396;SDS011;38322;53.108;6.308;2024-01-25T11:13:25;33.35;;;8.30;;
52396;SDS011;38322;53.108;6.308;2024-01-25T11:15:52;37.35;;;8.75;;
52396;SDS011;38322;53.108;6.308;2024-01-25T11:18:18;40.13;;;8.02;;
52396;SDS011;38322;53.108;6.308;2024-01-25T11:20:46;35.65;;;7.95;;
52396;SDS011;38322;53.108;6.308;2024-01-25T11:23:14;31.30;;;8.00;;
52396;SDS011;38322;53.108;6.308;2024-01-25T11:25:43;28.17;;;8.75;;
52396;SDS011;38322;53.108;6.308;2024-01-25T11:28:11;30.13;;;8.90;;
52396;SDS011;38322;53.108;6.308;2024-01-25T11:30:40;37.67;;;7.93;;
52396;SDS011;38322;53.108;6.308;2024-01-25T11:33:07;29.77;;;7.32;;
52396;SDS011;38322;53.108;6.308;2024-01-25T11:35:34;40.95;;;8.98;;
52396;SDS011;38322;53.108;6.308;2024-01-25T11:38:00;37.95;;;10.18;;
52396;SDS011;38322;53.108;6.308;2024-01-25T11:40:26;36.33;;;9.48;;
52396;SDS011;38322;53.108;6.308;2024-01-25T11:42:53;39.20;;;7.40;;
52396;SDS011;38322;53.108;6.308;2024-01-25T11:45:19;37.08;;;10.15;;
52396;SDS011;38322;53.108;6.308;2024-01-25T11:47:45;38.28;;;8.95;;
52396;SDS011;38322;53.108;6.308;2024-01-25T11:50:12;33.33;;;7.65;;
52396;SDS011;38322;53.108;6.308;2024-01-25T11:52:38;44.55;;;9.48;;
52396;SDS011;38322;53.108;6.308;2024-01-25T11:55:05;31.35;;;7.57;;
52396;SDS011;38322;53.108;6.308;2024-01-25T11:57:32;36.50;;;9.25;;
52396;SDS011;38322;53.108;6.308;2024-01-25T12:00:00;36.05;;;8.63;;
52396;SDS011;38322;53.108;6.308;2024-01-25T12:02:26;33.58;;;8.50;;
52396;SDS011;38322;53.108;6.308;2024-01-25T12:04:52;50.28;;;9.13;;
52396;SDS011;38322;53.108;6.308;2024-01-25T12:07:21;34.35;;;8.70;;
52396;SDS011;38322;53.108;6.308;2024-01-25T12:09:56;46.60;;;9.50;;
52396;SDS011;38322;53.108;6.308;2024-01-25T12:12:24;31.35;;;7.47;;
52396;SDS011;38322;53.108;6.308;2024-01-25T12:14:50;31.52;;;7.80;;
52396;SDS011;38322;53.108;6.308;2024-01-25T12:17:17;31.02;;;9.07;;
52396;SDS011;38322;53.108;6.308;2024-01-25T12:19:43;32.78;;;8.50;;
52396;SDS011;38322;53.108;6.308;2024-01-25T12:22:09;38.35;;;8.45;;
52396;SDS011;38322;53.108;6.308;2024-01-25T12:24:35;31.35;;;7.75;;
52396;SDS011;38322;53.108;6.308;2024-01-25T12:27:01;38.20;;;7.10;;
52396;SDS011;38322;53.108;6.308;2024-01-25T12:29:27;29.60;;;6.35;;
52396;SDS011;38322;53.108;6.308;2024-01-25T12:31:53;30.08;;;5.80;;
52396;SDS011;38322;53.108;6.308;2024-01-25T12:34:18;35.55;;;7.10;;
52396;SDS011;38322;53.108;6.308;2024-01-25T12:36:44;27.02;;;6.60;;
52396;SDS011;38322;53.108;6.308;2024-01-25T12:39:10;42.95;;;7.85;;
52396;SDS011;38322;53.108;6.308;2024-01-25T12:41:38;39.67;;;8.30;;
52396;SDS011;38322;53.108;6.308;2024-01-25T12:44:04;28.25;;;6.65;;
52396;SDS011;38322;53.108;6.308;2024-01-25T12:46:29;33.08;;;8.38;;
52396;SDS011;38322;53.108;6.308;2024-01-25T12:48:55;31.45;;;6.75;;
52396;SDS011;38322;53.108;6.308;2024-01-25T12:51:22;33.03;;;7.13;;
52396;SDS011;38322;53.108;6.308;2024-01-25T12:53:49;31.40;;;8.73;;
52396;SDS011;38322;53.108;6.308;2024-01-25T12:56:15;24.50;;;7.13;;
52396;SDS011;38322;53.108;6.308;2024-01-25T12:58:41;30.13;;;6.22;;
52396;SDS011;38322;53.108;6.308;2024-01-25T13:01:07;26.55;;;7.45;;
52396;SDS011;38322;53.108;6.308;2024-01-25T13:03:34;35.15;;;6.75;;
52396;SDS011;38322;53.108;6.308;2024-01-25T13:06:00;33.78;;;7.38;;
52396;SDS011;38322;53.108;6.308;2024-01-25T13:08:28;34.47;;;8.40;;
52396;SDS011;38322;53.108;6.308;2024-01-25T13:10:54;30.52;;;8.82;;
52396;SDS011;38322;53.108;6.308;2024-01-25T13:13:20;26.52;;;7.30;;
52396;SDS011;38322;53.108;6.308;2024-01-25T13:15:46;38.28;;;8.25;;
52396;SDS011;38322;53.108;6.308;2024-01-25T13:18:12;24.27;;;6.57;;
52396;SDS011;38322;53.108;6.308;2024-01-25T13:20:38;28.40;;;7.50;;
52396;SDS011;38322;53.108;6.308;2024-01-25T13:23:04;38.35;;;9.80;;
52396;SDS011;38322;53.108;6.308;2024-01-25T13:25:30;27.67;;;6.93;;
52396;SDS011;38322;53.108;6.308;2024-01-25T13:27:55;27.20;;;8.73;;
52396;SDS011;38322;53.108;6.308;2024-01-25T13:30:21;34.70;;;8.93;;
52396;SDS011;38322;53.108;6.308;2024-01-25T13:32:47;39.70;;;6.95;;
52396;SDS011;38322;53.108;6.308;2024-01-25T13:35:13;24.33;;;7.47;;
52396;SDS011;38322;53.108;6.308;2024-01-25T13:37:39;32.08;;;9.15;;
52396;SDS011;38322;53.108;6.308;2024-01-25T13:40:05;36.47;;;7.93;;
52396;SDS011;38322;53.108;6.308;2024-01-25T13:42:31;31.08;;;7.88;;
52396;SDS011;38322;53.108;6.308;2024-01-25T13:44:57;31.92;;;8.00;;
52396;SDS011;38322;53.108;6.308;2024-01-25T13:47:23;33.35;;;10.07;;
52396;SDS011;38322;53.108;6.308;2024-01-25T13:49:49;33.38;;;9.43;;
52396;SDS011;38322;53.108;6.308;2024-01-25T13:52:18;34.50;;;9.10;;
52396;SDS011;38322;53.108;6.308;2024-01-25T13:54:46;33.90;;;9.40;;
52396;SDS011;38322;53.108;6.308;2024-01-25T13:57:14;35.53;;;11.32;;
52396;SDS011;38322;53.108;6.308;2024-01-25T13:59:40;38.88;;;10.48;;
52396;SDS011;38322;53.108;6.308;2024-01-25T14:02:06;42.40;;;9.70;;
52396;SDS011;38322;53.108;6.308;2024-01-25T14:04:32;32.55;;;10.73;;
52396;SDS011;38322;53.108;6.308;2024-01-25T14:06:58;31.50;;;9.02;;
52396;SDS011;38322;53.108;6.308;2024-01-25T14:09:24;33.38;;;10.13;;
52396;SDS011;38322;53.108;6.308;2024-01-25T14:11:54;42.22;;;9.02;;
52396;SDS011;38322;53.108;6.308;2024-01-25T14:14:20;51.80;;;9.75;;
52396;SDS011;38322;53.108;6.308;2024-01-25T14:16:46;37.67;;;12.40;;
52396;SDS011;38322;53.108;6.308;2024-01-25T14:19:12;32.88;;;8.52;;
52396;SDS011;38322;53.108;6.308;2024-01-25T14:21:38;42.95;;;10.43;;
52396;SDS011;38322;53.108;6.308;2024-01-25T14:24:03;38.70;;;10.65;;
52396;SDS011;38322;53.108;6.308;2024-01-25T14:26:29;30.85;;;8.32;;
52396;SDS011;38322;53.108;6.308;2024-01-25T14:28:55;36.15;;;11.55;;
52396;SDS011;38322;53.108;6.308;2024-01-25T14:31:21;29.08;;;9.98;;
52396;SDS011;38322;53.108;6.308;2024-01-25T14:33:47;43.50;;;10.00;;
52396;SDS011;38322;53.108;6.308;2024-01-25T14:36:13;43.08;;;12.90;;
52396;SDS011;38322;53.108;6.308;2024-01-25T14:38:39;41.28;;;10.48;;
52396;SDS011;38322;53.108;6.308;2024-01-25T14:41:08;35.67;;;9.15;;
52396;SDS011;38322;53.108;6.308;2024-01-25T14:43:34;34.90;;;10.65;;
52396;SDS011;38322;53.108;6.308;2024-01-25T14:46:02;35.08;;;6.68;;
52396;SDS011;38322;53.108;6.308;2024-01-25T14:48:28;26.50;;;7.82;;
52396;SDS011;38322;53.108;6.308;2024-01-25T14:50:54;32.95;;;8.52;;
52396;SDS011;38322;53.108;6.308;2024-01-25T14:53:20;37.50;;;10.10;;
52396;SDS011;38322;53.108;6.308;2024-01-25T14:55:46;30.52;;;8.43;;
52396;SDS011;38322;53.108;6.308;2024-01-25T14:58:11;35.83;;;10.48;;
52396;SDS011;38322;53.108;6.308;2024-01-25T15:00:39;37.55;;;6.95;;
52396;SDS011;38322;53.108;6.308;2024-01-25T15:03:05;34.53;;;9.55;;
52396;SDS011;38322;53.108;6.308;2024-01-25T15:05:32;31.80;;;8.57;;
52396;SDS011;38322;53.108;6.308;2024-01-25T15:07:57;32.72;;;7.30;;
52396;SDS011;38322;53.108;6.308;2024-01-25T15:10:24;38.50;;;7.65;;
52396;SDS011;38322;53.108;6.308;2024-01-25T15:12:49;39.53;;;10.05;;
52396;SDS011;38322;53.108;6.308;2024-01-25T15:15:19;24.48;;;6.53;;
52396;SDS011;38322;53.108;6.308;2024-01-25T15:17:44;41.67;;;7.78;;
52396;SDS011;38322;53.108;6.308;2024-01-25T15:20:10;32.08;;;8.00;;
52396;SDS011;38322;53.108;6.308;2024-01-25T15:22:36;30.38;;;9.23;;
52396;SDS011;38322;53.108;6.308;2024-01-25T15:25:03;40.13;;;8.65;;
52396;SDS011;38322;53.108;6.308;2024-01-25T15:27:30;47.00;;;9.60;;
52396;SDS011;38322;53.108;6.308;2024-01-25T15:29:56;31.63;;;7.57;;
52396;SDS011;38322;53.108;6.308;2024-01-25T15:32:21;28.17;;;9.23;;
52396;SDS011;38322;53.108;6.308;2024-01-25T15:34:48;30.92;;;6.95;;
52396;SDS011;38322;53.108;6.308;2024-01-25T15:37:14;28.27;;;5.60;;
52396;SDS011;38322;53.108;6.308;2024-01-25T15:39:40;23.63;;;6.22;;
52396;SDS011;38322;53.108;6.308;2024-01-25T15:42:06;27.00;;;7.07;;
52396;SDS011;38322;53.108;6.308;2024-01-25T15:44:31;27.02;;;7.20;;
52396;SDS011;38322;53.108;6.308;2024-01-25T15:46:57;32.70;;;6.93;;
52396;SDS011;38322;53.108;6.308;2024-01-25T15:49:23;50.13;;;8.95;;
52396;SDS011;38322;53.108;6.308;2024-01-25T15:51:49;36.95;;;7.72;;
52396;SDS011;38322;53.108;6.308;2024-01-25T15:54:15;40.42;;;10.48;;
52396;SDS011;38322;53.108;6.308;2024-01-25T15:56:40;33.35;;;7.88;;
52396;SDS011;38322;53.108;6.308;2024-01-25T15:59:06;32.65;;;8.30;;
52396;SDS011;38322;53.108;6.308;2024-01-25T16:01:32;33.35;;;5.88;;
52396;SDS011;38322;53.108;6.308;2024-01-25T16:03:58;26.90;;;6.82;;
52396;SDS011;38322;53.108;6.308;2024-01-25T16:06:24;29.45;;;7.63;;
52396;SDS011;38322;53.108;6.308;2024-01-25T16:08:50;26.63;;;5.68;;
52396;SDS011;38322;53.108;6.308;2024-01-25T16:11:15;31.73;;;6.68;;
52396;SDS011;38322;53.108;6.308;2024-01-25T16:13:41;27.10;;;6.55;;
52396;SDS011;38322;53.108;6.308;2024-01-25T16:16:07;25.67;;;6.72;;
52396;SDS011;38322;53.108;6.308;2024-01-25T16:18:33;25.33;;;6.68;;
52396;SDS011;38322;53.108;6.308;2024-01-25T16:20:59;29.35;;;7.85;;
52396;SDS011;38322;53.108;6.308;2024-01-25T16:23:25;38.63;;;9.55;;
52396;SDS011;38322;53.108;6.308;2024-01-25T16:25:51;30.40;;;8.98;;
52396;SDS011;38322;53.108;6.308;2024-01-25T16:28:16;42.75;;;8.98;;
52396;SDS011;38322;53.108;6.308;2024-01-25T16:30:42;34.90;;;10.00;;
52396;SDS011;38322;53.108;6.308;2024-01-25T16:33:08;38.15;;;9.85;;
52396;SDS011;38322;53.108;6.308;2024-01-25T16:35:34;47.95;;;10.13;;
52396;SDS011;38322;53.108;6.308;2024-01-25T16:38:00;32.45;;;8.90;;
52396;SDS011;38322;53.108;6.308;2024-01-25T16:40:26;31.35;;;6.88;;
52396;SDS011;38322;53.108;6.308;2024-01-25T16:42:52;29.85;;;7.82;;
52396;SDS011;38322;53.108;6.308;2024-01-25T16:45:19;33.95;;;7.35;;
52396;SDS011;38322;53.108;6.308;2024-01-25T16:47:45;30.58;;;7.63;;
52396;SDS011;38322;53.108;6.308;2024-01-25T16:50:11;33.92;;;8.05;;
52396;SDS011;38322;53.108;6.308;2024-01-25T16:52:38;36.25;;;6.38;;
52396;SDS011;38322;53.108;6.308;2024-01-25T16:55:04;23.35;;;6.60;;
52396;SDS011;38322;53.108;6.308;2024-01-25T16:57:30;31.55;;;6.18;;
52396;SDS011;38322;53.108;6.308;2024-01-25T16:59:56;24.00;;;6.40;;
52396;SDS011;38322;53.108;6.308;2024-01-25T17:02:21;34.95;;;7.97;;
52396;SDS011;38322;53.108;6.308;2024-01-25T17:04:47;28.95;;;6.53;;
52396;SDS011;38322;53.108;6.308;2024-01-25T17:07:13;29.88;;;6.38;;
52396;SDS011;38322;53.108;6.308;2024-01-25T17:09:39;32.95;;;6.43;;
52396;SDS011;38322;53.108;6.308;2024-01-25T17:12:05;24.90;;;5.55;;
52396;SDS011;38322;53.108;6.308;2024-01-25T17:14:31;33.08;;;6.95;;
52396;SDS011;38322;53.108;6.308;2024-01-25T17:16:57;33.80;;;8.15;;
52396;SDS011;38322;53.108;6.308;2024-01-25T17:19:23;37.55;;;6.90;;
52396;SDS011;38322;53.108;6.308;2024-01-25T17:21:49;30.02;;;6.97;;
52396;SDS011;38322;53.108;6.308;2024-01-25T17:24:16;34.08;;;8.85;;
52396;SDS011;38322;53.108;6.308;2024-01-25T17:26:42;24.63;;;5.70;;
52396;SDS011;38322;53.108;6.308;2024-01-25T17:29:08;31.55;;;5.30;;
52396;SDS011;38322;53.108;6.308;2024-01-25T17:31:34;31.08;;;8.65;;
52396;SDS011;38322;53.108;6.308;2024-01-25T17:34:00;27.00;;;6.22;;
52396;SDS011;38322;53.108;6.308;2024-01-25T17:36:25;35.70;;;8.00;;
52396;SDS011;38322;53.108;6.308;2024-01-25T17:38:51;29.70;;;7.35;;
52396;SDS011;38322;53.108;6.308;2024-01-25T17:41:17;39.90;;;9.07;;
52396;SDS011;38322;53.108;6.308;2024-01-25T17:43:44;25.05;;;7.53;;
52396;SDS011;38322;53.108;6.308;2024-01-25T17:46:10;39.72;;;9.93;;
52396;SDS011;38322;53.108;6.308;2024-01-25T17:48:35;43.85;;;9.23;;
52396;SDS011;38322;53.108;6.308;2024-01-25T17:51:01;39.35;;;10.30;;
52396;SDS011;38322;53.108;6.308;2024-01-25T17:53:27;33.75;;;9.02;;
52396;SDS011;38322;53.108;6.308;2024-01-25T17:55:53;33.65;;;7.57;;
52396;SDS011;38322;53.108;6.308;2024-01-25T17:58:19;32.60;;;8.77;;
52396;SDS011;38322;53.108;6.308;2024-01-25T18:00:45;37.70;;;9.68;;
52396;SDS011;38322;53.108;6.308;2024-01-25T18:03:11;36.50;;;9.63;;
52396;SDS011;38322;53.108;6.308;2024-01-25T18:05:36;33.25;;;8.25;;
52396;SDS011;38322;53.108;6.308;2024-01-25T18:08:02;26.58;;;6.28;;
52396;SDS011;38322;53.108;6.308;2024-01-25T18:10:28;46.35;;;10.45;;
52396;SDS011;38322;53.108;6.308;2024-01-25T18:12:54;31.40;;;8.25;;
52396;SDS011;38322;53.108;6.308;2024-01-25T18:15:20;42.15;;;8.70;;
52396;SDS011;38322;53.108;6.308;2024-01-25T18:17:46;36.00;;;8.50;;
52396;SDS011;38322;53.108;6.308;2024-01-25T18:20:12;44.72;;;9.80;;
52396;SDS011;38322;53.108;6.308;2024-01-25T18:22:38;32.20;;;6.50;;
52396;SDS011;38322;53.108;6.308;2024-01-25T18:25:04;39.47;;;9.15;;
52396;SDS011;38322;53.108;6.308;2024-01-25T18:27:31;47.35;;;9.90;;
52396;SDS011;38322;53.108;6.308;2024-01-25T18:29:57;34.03;;;8.25;;
52396;SDS011;38322;53.108;6.308;2024-01-25T18:32:23;29.02;;;9.60;;
52396;SDS011;38322;53.108;6.308;2024-01-25T18:34:49;33.53;;;9.88;;
52396;SDS011;38322;53.108;6.308;2024-01-25T18:37:15;37.10;;;9.35;;
52396;SDS011;38322;53.108;6.308;2024-01-25T18:39:41;38.88;;;9.05;;
52396;SDS011;38322;53.108;6.308;2024-01-25T18:42:07;35.30;;;9.73;;
52396;SDS011;38322;53.108;6.308;2024-01-25T18:44:33;47.55;;;13.32;;
52396;SDS011;38322;53.108;6.308;2024-01-25T18:46:59;40.50;;;12.63;;
52396;SDS011;38322;53.108;6.308;2024-01-25T18:49:25;32.13;;;10.68;;
52396;SDS011;38322;53.108;6.308;2024-01-25T18:51:51;32.75;;;10.18;;
52396;SDS011;38322;53.108;6.308;2024-01-25T18:54:17;43.95;;;14.27;;
52396;SDS011;38322;53.108;6.308;2024-01-25T18:56:43;41.20;;;12.27;;
52396;SDS011;38322;53.108;6.308;2024-01-25T18:59:09;43.38;;;14.20;;
52396;SDS011;38322;53.108;6.308;2024-01-25T19:01:35;40.65;;;11.60;;
52396;SDS011;38322;53.108;6.308;2024-01-25T19:04:02;54.83;;;15.02;;
52396;SDS011;38322;53.108;6.308;2024-01-25T19:06:33;44.33;;;14.10;;
52396;SDS011;38322;53.108;6.308;2024-01-25T19:09:00;55.42;;;13.80;;
52396;SDS011;38322;53.108;6.308;2024-01-25T19:11:26;54.35;;;13.57;;
52396;SDS011;38322;53.108;6.308;2024-01-25T19:13:52;41.00;;;13.73;;
52396;SDS011;38322;53.108;6.308;2024-01-25T19:16:18;47.92;;;14.30;;
52396;SDS011;38322;53.108;6.308;2024-01-25T19:18:44;52.47;;;14.27;;
52396;SDS011;38322;53.108;6.308;2024-01-25T19:21:11;53.28;;;17.13;;
52396;SDS011;38322;53.108;6.308;2024-01-25T19:23:37;58.58;;;17.45;;
52396;SDS011;38322;53.108;6.308;2024-01-25T19:26:03;46.47;;;17.67;;
52396;SDS011;38322;53.108;6.308;2024-01-25T19:28:29;54.88;;;18.08;;
52396;SDS011;38322;53.108;6.308;2024-01-25T19:30:56;63.95;;;22.50;;
52396;SDS011;38322;53.108;6.308;2024-01-25T19:33:22;53.92;;;21.10;;
52396;SDS011;38322;53.108;6.308;2024-01-25T19:35:49;43.17;;;17.40;;
52396;SDS011;38322;53.108;6.308;2024-01-25T19:38:16;57.42;;;20.38;;
52396;SDS011;38322;53.108;6.308;2024-01-25T19:40:42;40.55;;;20.05;;
52396;SDS011;38322;53.108;6.308;2024-01-25T19:43:09;57.00;;;20.77;;
52396;SDS011;38322;53.108;6.308;2024-01-25T19:45:35;47.58;;;19.80;;
52396;SDS011;38322;53.108;6.308;2024-01-25T19:48:01;49.85;;;23.20;;
52396;SDS011;38322;53.108;6.308;2024-01-25T19:50:28;52.80;;;22.98;;
52396;SDS011;38322;53.108;6.308;2024-01-25T19:52:53;57.03;;;21.33;;
52396;SDS011;38322;53.108;6.308;2024-01-25T19:55:21;64.50;;;24.17;;
52396;SDS011;38322;53.108;6.308;2024-01-25T19:57:47;61.15;;;22.50;;
52396;SDS011;38322;53.108;6.308;2024-01-25T20:00:13;56.20;;;22.77;;
52396;SDS011;38322;53.108;6.308;2024-01-25T20:02:40;47.33;;;22.67;;
52396;SDS011;38322;53.108;6.308;2024-01-25T20:05:06;55.83;;;24.15;;
52396;SDS011;38322;53.108;6.308;2024-01-25T20:07:34;55.78;;;24.67;;
52396;SDS011;38322;53.108;6.308;2024-01-25T20:10:00;53.53;;;24.13;;
52396;SDS011;38322;53.108;6.308;2024-01-25T20:12:26;48.60;;;22.73;;
52396;SDS011;38322;53.108;6.308;2024-01-25T20:14:52;66.22;;;26.85;;
52396;SDS011;38322;53.108;6.308;2024-01-25T20:17:18;56.35;;;25.13;;
52396;SDS011;38322;53.108;6.308;2024-01-25T20:19:44;66.28;;;29.35;;
52396;SDS011;38322;53.108;6.308;2024-01-25T20:22:11;57.35;;;27.40;;
52396;SDS011;38322;53.108;6.308;2024-01-25T20:24:36;64.70;;;28.17;;
52396;SDS011;38322;53.108;6.308;2024-01-25T20:27:02;63.40;;;27.80;;
52396;SDS011;38322;53.108;6.308;2024-01-25T20:29:29;59.85;;;28.05;;